createdAt,value
2023-06-17T00:01:08.464Z,5.65
2023-06-17T00:03:35.515Z,4.12
2023-06-17T00:06:02.430Z,4.43
2023-06-17T00:08:29.489Z,4.62
2023-06-17T00:10:56.479Z,4.07
2023-06-17T00:13:24.096Z,5.22
2023-06-17T00:15:52.444Z,4.87
2023-06-17T00:18:21.201Z,3.95
2023-06-17T00:20:48.881Z,3.92
2023-06-17T00:23:15.826Z,4.40
2023-06-17T00:25:42.834Z,4.72
2023-06-17T00:28:09.844Z,4.70
2023-06-17T00:30:37.880Z,4.85
2023-06-17T00:33:05.611Z,4.35
2023-06-17T00:35:32.983Z,4.47
2023-06-17T00:38:01.156Z,4.43
2023-06-17T00:40:28.357Z,4.32
2023-06-17T00:42:55.313Z,4.78
2023-06-17T00:45:22.206Z,4.30
2023-06-17T00:47:49.293Z,3.62
2023-06-17T00:50:17.401Z,3.55
2023-06-17T00:52:46.653Z,4.60
2023-06-17T00:55:13.809Z,4.62
2023-06-17T00:57:41.030Z,4.55
2023-06-17T01:00:12.393Z,4.53
2023-06-17T01:02:45.666Z,4.53
2023-06-17T01:05:16.551Z,4.32
2023-06-17T01:07:59.993Z,3.72
2023-06-17T01:10:50.257Z,4.53
2023-06-17T01:13:18.050Z,5.30
2023-06-17T01:15:45.313Z,4.12
2023-06-17T01:18:13.122Z,3.85
2023-06-17T01:20:41.884Z,4.07
2023-06-17T01:23:12.168Z,4.35
2023-06-17T01:25:41.009Z,4.07
2023-06-17T01:28:18.101Z,4.00
2023-06-17T01:30:49.509Z,3.92
2023-06-17T01:33:17.219Z,4.30
2023-06-17T01:36:05.704Z,4.10
2023-06-17T01:38:38.511Z,3.70
2023-06-17T01:41:12.220Z,3.95
2023-06-17T01:43:41.952Z,4.12
2023-06-17T01:48:36.043Z,4.10
2023-06-17T01:51:03.182Z,4.00
2023-06-17T01:53:30.163Z,4.15
2023-06-17T01:55:57.214Z,3.80
2023-06-17T01:58:24.430Z,3.53
2023-06-17T02:00:51.496Z,3.53
2023-06-17T02:03:18.956Z,4.03
2023-06-17T02:05:46.193Z,4.85
2023-06-17T02:08:13.611Z,3.50
2023-06-17T02:10:40.596Z,3.95
2023-06-17T02:13:09.511Z,4.25
2023-06-17T02:15:36.553Z,3.45
2023-06-17T02:18:03.721Z,4.22
2023-06-17T02:20:30.734Z,4.57
2023-06-17T02:22:57.688Z,3.62
2023-06-17T02:25:24.708Z,4.03
2023-06-17T02:27:52.932Z,3.55
2023-06-17T02:30:20.036Z,3.92
2023-06-17T02:32:47.263Z,4.43
2023-06-17T02:35:15.350Z,4.07
2023-06-17T02:37:42.756Z,4.12
2023-06-17T02:40:10.648Z,3.75
2023-06-17T02:42:42.097Z,3.35
2023-06-17T02:45:12.807Z,4.15
2023-06-17T02:47:42.242Z,3.53
2023-06-17T02:50:09.794Z,4.03
2023-06-17T02:52:38.610Z,3.92
2023-06-17T02:55:07.054Z,3.45
2023-06-17T02:57:34.156Z,3.78
2023-06-17T03:00:01.327Z,3.55
2023-06-17T03:02:28.370Z,4.10
2023-06-17T03:04:55.533Z,3.75
2023-06-17T03:07:22.848Z,3.20
2023-06-17T03:09:49.951Z,3.70
2023-06-17T03:12:16.984Z,3.60
2023-06-17T03:14:43.901Z,4.07
2023-06-17T03:17:12.199Z,4.03
2023-06-17T03:19:39.230Z,3.78
2023-06-17T03:22:07.212Z,4.65
2023-06-17T03:24:34.216Z,4.07
2023-06-17T03:27:01.314Z,4.05
2023-06-17T03:29:29.027Z,3.90
2023-06-17T03:31:58.561Z,3.75
2023-06-17T03:36:53.171Z,3.80
2023-06-17T03:39:20.116Z,3.78
2023-06-17T03:41:47.041Z,4.10
2023-06-17T03:44:13.994Z,3.70
2023-06-17T03:46:41.057Z,3.53
2023-06-17T03:49:07.978Z,3.80
2023-06-17T03:51:35.005Z,3.53
2023-06-17T03:54:03.797Z,3.03
2023-06-17T03:56:31.471Z,3.80
2023-06-17T03:58:58.473Z,3.10
2023-06-17T04:01:25.393Z,4.10
2023-06-17T04:03:52.608Z,3.30
2023-06-17T04:06:19.833Z,3.47
2023-06-17T04:08:48.400Z,3.45
2023-06-17T04:11:16.550Z,3.20
2023-06-17T04:13:43.522Z,3.50
2023-06-17T04:16:10.450Z,3.17
2023-06-17T04:18:37.418Z,2.87
2023-06-17T04:21:04.281Z,5.03
2023-06-17T04:23:31.276Z,3.55
2023-06-17T04:25:58.227Z,2.95
2023-06-17T04:28:25.192Z,2.90
2023-06-17T04:30:52.998Z,3.05
2023-06-17T04:33:19.944Z,2.90
2023-06-17T04:35:48.663Z,3.03
2023-06-17T04:38:15.962Z,3.17
2023-06-17T04:40:43.001Z,3.53
2023-06-17T04:43:11.192Z,2.78
2023-06-17T04:45:38.080Z,2.80
2023-06-17T04:48:05.429Z,3.08
2023-06-17T04:50:35.226Z,2.95
2023-06-17T04:53:05.120Z,3.10
2023-06-17T04:55:37.024Z,2.67
2023-06-17T04:58:06.630Z,3.08
2023-06-17T05:00:33.510Z,3.30
2023-06-17T05:03:00.482Z,3.00
2023-06-17T05:05:27.453Z,3.05
2023-06-17T05:07:54.407Z,3.35
2023-06-17T05:10:21.730Z,3.30
2023-06-17T05:12:48.860Z,3.12
2023-06-17T05:15:15.946Z,2.70
2023-06-17T05:17:45.013Z,2.87
2023-06-17T05:20:12.513Z,3.35
2023-06-17T05:22:39.826Z,3.10
2023-06-17T05:25:07.762Z,3.30
2023-06-17T05:27:34.910Z,3.03
2023-06-17T05:30:01.934Z,2.90
2023-06-17T05:32:29.238Z,2.80
2023-06-17T05:34:56.160Z,2.80
2023-06-17T05:37:23.148Z,3.20
2023-06-17T05:39:50.155Z,3.00
2023-06-17T05:42:17.076Z,2.97
2023-06-17T05:44:44.027Z,2.97
2023-06-17T05:47:11.089Z,2.90
2023-06-17T05:49:38.057Z,3.20
2023-06-17T05:52:05.478Z,3.00
2023-06-17T05:54:32.438Z,2.95
2023-06-17T05:56:59.424Z,3.03
2023-06-17T05:59:28.358Z,2.90
2023-06-17T06:01:55.533Z,2.85
2023-06-17T06:04:22.626Z,2.97
2023-06-17T06:06:49.617Z,2.83
2023-06-17T06:09:16.821Z,2.83
2023-06-17T06:11:43.740Z,2.53
2023-06-17T06:14:10.693Z,2.97
2023-06-17T06:16:37.693Z,3.17
2023-06-17T06:19:04.834Z,2.87
2023-06-17T06:21:31.766Z,3.00
2023-06-17T06:23:59.108Z,3.12
2023-06-17T06:26:26.795Z,2.62
2023-06-17T06:28:54.693Z,3.12
2023-06-17T06:31:21.618Z,3.08
2023-06-17T06:33:48.808Z,3.53
2023-06-17T06:36:15.788Z,3.03
2023-06-17T06:38:42.885Z,3.12
2023-06-17T06:41:09.853Z,3.03
2023-06-17T06:43:36.839Z,2.87
2023-06-17T06:46:04.065Z,3.10
2023-06-17T06:48:31.002Z,2.83
2023-06-17T06:50:58.273Z,3.03
2023-06-17T06:53:25.584Z,3.28
2023-06-17T06:55:52.642Z,2.80
2023-06-17T06:58:19.567Z,2.95
2023-06-17T07:00:46.548Z,3.03
2023-06-17T07:03:13.664Z,2.60
2023-06-17T07:05:40.718Z,2.80
2023-06-17T07:08:07.829Z,3.20
2023-06-17T07:10:34.927Z,3.22
2023-06-17T07:13:01.955Z,2.97
2023-06-17T07:15:29.071Z,3.00
2023-06-17T07:17:56.034Z,2.72
2023-06-17T07:20:23.491Z,2.58
2023-06-17T07:22:50.679Z,3.28
2023-06-17T07:25:17.737Z,2.58
2023-06-17T07:27:44.722Z,2.28
2023-06-17T07:30:12.249Z,2.70
2023-06-17T07:32:39.297Z,2.92
2023-06-17T07:35:07.096Z,2.67
2023-06-17T07:37:34.240Z,2.67
2023-06-17T07:40:01.252Z,2.22
2023-06-17T07:42:28.193Z,2.95
2023-06-17T07:44:55.151Z,2.72
2023-06-17T07:47:22.177Z,2.72
2023-06-17T07:49:49.158Z,2.72
2023-06-17T07:52:16.302Z,3.05
2023-06-17T07:54:43.215Z,2.90
2023-06-17T07:57:10.231Z,3.12
2023-06-17T07:59:37.166Z,3.10
2023-06-17T08:02:05.986Z,2.50
2023-06-17T08:04:34.425Z,3.20
2023-06-17T08:07:01.759Z,2.65
2023-06-17T08:09:29.233Z,2.53
2023-06-17T08:11:56.297Z,2.28
2023-06-17T08:14:23.261Z,2.70
2023-06-17T08:16:50.305Z,3.05
2023-06-17T08:19:17.317Z,2.78
2023-06-17T08:21:45.852Z,3.10
2023-06-17T08:24:23.743Z,2.30
2023-06-17T08:26:51.949Z,2.50
2023-06-17T08:29:19.797Z,2.67
2023-06-17T08:31:50.129Z,2.40
2023-06-17T08:34:17.127Z,2.83
2023-06-17T08:36:46.808Z,2.42
2023-06-17T08:39:14.330Z,2.50
2023-06-17T08:41:43.314Z,2.60
2023-06-17T08:44:13.134Z,2.40
2023-06-17T08:46:45.858Z,2.97
2023-06-17T08:49:14.480Z,3.15
2023-06-17T08:51:42.062Z,2.67
2023-06-17T08:54:11.788Z,2.40
2023-06-17T08:56:39.602Z,3.00
2023-06-17T08:59:06.634Z,2.58
2023-06-17T09:01:34.238Z,2.70
2023-06-17T09:04:02.352Z,2.60
2023-06-17T09:06:30.794Z,2.78
2023-06-17T09:08:59.350Z,2.97
2023-06-17T09:11:29.445Z,2.70
2023-06-17T09:14:01.950Z,2.72
2023-06-17T09:16:29.484Z,3.10
2023-06-17T09:19:08.195Z,2.92
2023-06-17T09:21:36.512Z,4.10
2023-06-17T09:24:07.772Z,2.77
2023-06-17T09:26:36.799Z,2.95
2023-06-17T09:29:08.621Z,3.87
2023-06-17T09:31:51.902Z,2.80
2023-06-17T09:34:20.148Z,2.85
2023-06-17T09:36:48.098Z,2.55
2023-06-17T09:39:15.068Z,2.50
2023-06-17T09:41:44.112Z,2.85
2023-06-17T09:44:12.881Z,2.80
2023-06-17T09:46:48.029Z,2.80
2023-06-17T09:49:23.263Z,3.17
2023-06-17T09:51:53.113Z,2.83
2023-06-17T09:54:23.573Z,3.22
2023-06-17T09:56:53.641Z,3.30
2023-06-17T09:59:23.055Z,3.75
2023-06-17T10:01:56.142Z,2.37
2023-06-17T10:04:23.304Z,2.42
2023-06-17T10:06:55.002Z,3.42
2023-06-17T10:09:22.603Z,2.42
2023-06-17T10:11:54.526Z,2.53
2023-06-17T10:14:33.063Z,2.35
2023-06-17T10:17:01.877Z,2.58
2023-06-17T10:19:33.436Z,2.50
2023-06-17T10:22:02.891Z,2.80
2023-06-17T10:24:30.262Z,2.40
2023-06-17T10:29:30.985Z,2.30
2023-06-17T10:32:17.671Z,2.15
2023-06-17T10:35:07.387Z,2.42
2023-06-17T10:37:52.617Z,2.47
2023-06-17T10:40:25.151Z,2.42
2023-06-17T10:43:01.846Z,2.67
2023-06-17T10:45:48.186Z,2.42
2023-06-17T10:48:18.181Z,2.17
2023-06-17T10:50:50.970Z,2.70
2023-06-17T10:53:19.021Z,2.42
2023-06-17T10:55:47.292Z,2.37
2023-06-17T10:58:14.159Z,2.25
2023-06-17T11:00:41.290Z,2.35
2023-06-17T11:03:10.511Z,1.90
2023-06-17T11:05:37.861Z,1.87
2023-06-17T11:08:05.547Z,2.60
2023-06-17T11:10:33.300Z,2.55
2023-06-17T11:13:00.265Z,2.45
2023-06-17T11:15:27.280Z,2.08
2023-06-17T11:18:01.652Z,1.75
2023-06-17T11:20:34.802Z,1.70
2023-06-17T11:23:04.107Z,1.85
2023-06-17T11:28:13.056Z,2.00
2023-06-17T11:30:41.939Z,2.00
2023-06-17T11:33:09.625Z,2.08
2023-06-17T11:35:38.393Z,2.10
2023-06-17T11:38:06.413Z,2.25
2023-06-17T11:40:33.384Z,2.10
2023-06-17T11:43:01.528Z,2.58
2023-06-17T11:45:31.526Z,2.15
2023-06-17T11:47:58.848Z,2.45
2023-06-17T11:50:31.457Z,2.50
2023-06-17T11:52:59.341Z,2.67
2023-06-17T11:55:36.676Z,2.12
2023-06-17T11:58:06.039Z,2.40
2023-06-17T12:03:15.377Z,2.30
2023-06-17T12:05:42.549Z,2.55
2023-06-17T12:08:10.665Z,2.60
2023-06-17T12:10:40.418Z,2.58
2023-06-17T12:13:12.975Z,2.60
2023-06-17T12:15:40.244Z,2.80
2023-06-17T12:18:12.895Z,2.90
2023-06-17T12:20:50.089Z,2.78
2023-06-17T12:23:17.079Z,2.90
2023-06-17T12:25:44.464Z,2.53
2023-06-17T12:28:11.381Z,2.80
2023-06-17T12:30:40.500Z,2.78
2023-06-17T12:35:34.381Z,2.85
2023-06-17T12:38:01.545Z,2.95
2023-06-17T12:40:29.315Z,2.83
2023-06-17T12:42:56.255Z,3.35
2023-06-17T12:45:23.773Z,3.42
2023-06-17T12:47:50.979Z,3.25
2023-06-17T12:50:18.184Z,3.45
2023-06-17T12:52:45.458Z,3.22
2023-06-17T12:55:12.455Z,3.20
2023-06-17T12:57:39.496Z,3.40
2023-06-17T13:00:07.679Z,3.30
2023-06-17T13:02:37.204Z,3.15
2023-06-17T13:05:04.602Z,3.50
2023-06-17T13:07:31.455Z,3.30
2023-06-17T13:09:58.680Z,3.47
2023-06-17T13:12:25.742Z,3.03
2023-06-17T13:14:52.756Z,3.08
2023-06-17T13:17:19.756Z,3.33
2023-06-17T13:19:47.935Z,3.22
2023-06-17T13:22:15.005Z,2.97
2023-06-17T13:24:41.957Z,2.90
2023-06-17T13:27:09.190Z,3.28
2023-06-17T13:29:36.442Z,3.33
2023-06-17T13:32:03.770Z,3.08
2023-06-17T13:34:30.681Z,3.50
2023-06-17T13:36:57.811Z,2.83
2023-06-17T13:39:24.718Z,3.50
2023-06-17T13:41:51.726Z,4.00
2023-06-17T13:44:18.680Z,3.37
2023-06-17T13:46:46.327Z,3.12
2023-06-17T13:49:13.435Z,3.30
2023-06-17T13:51:40.621Z,3.80
2023-06-17T13:54:07.648Z,3.30
2023-06-17T13:56:34.707Z,3.20
2023-06-17T13:59:01.653Z,3.33
2023-06-17T14:01:28.710Z,3.55
2023-06-17T14:03:55.879Z,3.55
2023-06-17T14:06:23.134Z,3.10
2023-06-17T14:08:50.075Z,3.45
2023-06-17T14:11:17.462Z,3.00
2023-06-17T14:13:44.796Z,3.58
2023-06-17T14:16:13.068Z,3.00
2023-06-17T14:18:40.242Z,3.70
2023-06-17T14:21:07.603Z,3.62
2023-06-17T14:23:34.648Z,3.67
2023-06-17T14:26:01.617Z,3.53
2023-06-17T14:28:28.557Z,3.15
2023-06-17T14:30:55.583Z,3.12
2023-06-17T14:33:22.593Z,3.72
2023-06-17T14:35:49.504Z,3.55
2023-06-17T14:38:16.520Z,3.40
2023-06-17T14:40:45.120Z,3.90
2023-06-17T14:43:12.201Z,3.30
2023-06-17T14:45:39.175Z,3.40
2023-06-17T14:48:06.377Z,3.62
2023-06-17T14:50:33.468Z,3.50
2023-06-17T14:53:00.452Z,3.87
2023-06-17T14:55:27.468Z,3.15
2023-06-17T14:57:54.444Z,3.17
2023-06-17T15:00:21.861Z,3.47
2023-06-17T15:02:59.605Z,3.60
2023-06-17T15:05:28.354Z,3.28
2023-06-17T15:07:55.701Z,3.50
2023-06-17T15:10:22.998Z,2.87
2023-06-17T15:12:50.346Z,3.47
2023-06-17T15:15:18.387Z,3.67
2023-06-17T15:17:45.679Z,3.08
2023-06-17T15:20:12.838Z,3.12
2023-06-17T15:22:40.234Z,3.20
2023-06-17T15:25:08.536Z,3.58
2023-06-17T15:27:36.074Z,3.50
2023-06-17T15:30:03.899Z,3.28
2023-06-17T15:32:31.075Z,3.33
2023-06-17T15:35:00.029Z,3.47
2023-06-17T15:37:30.700Z,3.92
2023-06-17T15:39:57.880Z,3.70
2023-06-17T15:42:24.932Z,3.53
2023-06-17T15:44:52.029Z,3.30
2023-06-17T15:47:19.043Z,3.30
2023-06-17T15:49:46.023Z,3.22
2023-06-17T15:52:12.999Z,3.22
2023-06-17T15:54:39.981Z,3.53
2023-06-17T15:57:09.622Z,3.30
2023-06-17T15:59:37.159Z,3.62
2023-06-17T16:02:04.606Z,3.60
2023-06-17T16:04:33.750Z,3.15
2023-06-17T16:07:02.667Z,3.40
2023-06-17T16:09:36.694Z,3.53
2023-06-17T16:12:05.281Z,4.32
2023-06-17T16:14:37.222Z,3.23
2023-06-17T16:17:07.036Z,3.50
2023-06-17T16:19:38.117Z,3.33
2023-06-17T16:22:07.365Z,3.47
2023-06-17T16:24:34.633Z,3.10
2023-06-17T16:27:01.836Z,3.25
2023-06-17T16:29:28.857Z,3.40
2023-06-17T16:31:56.968Z,3.40
2023-06-17T16:34:24.165Z,2.87
2023-06-17T16:36:51.733Z,3.15
2023-06-17T16:39:19.050Z,3.53
2023-06-17T16:41:46.065Z,3.28
2023-06-17T16:44:13.248Z,4.20
2023-06-17T16:46:40.435Z,3.05
2023-06-17T16:49:07.566Z,3.55
2023-06-17T16:51:34.503Z,3.25
2023-06-17T16:54:04.533Z,3.33
2023-06-17T16:56:33.232Z,3.33
2023-06-17T16:59:00.271Z,3.67
2023-06-17T17:01:27.376Z,3.40
2023-06-17T17:03:54.447Z,3.50
2023-06-17T17:06:21.486Z,3.90
2023-06-17T17:08:49.873Z,4.20
2023-06-17T17:11:17.401Z,3.53
2023-06-17T17:13:49.198Z,3.80
2023-06-17T17:16:17.263Z,3.35
2023-06-17T17:18:44.295Z,3.90
2023-06-17T17:21:12.840Z,3.67
2023-06-17T17:23:43.489Z,3.67
2023-06-17T17:26:13.689Z,3.67
2023-06-17T17:28:41.688Z,3.47
2023-06-17T17:31:10.024Z,3.47
2023-06-17T17:33:37.341Z,3.70
2023-06-17T17:36:04.570Z,3.60
2023-06-17T17:38:31.644Z,3.33
2023-06-17T17:40:58.583Z,3.60
2023-06-17T17:43:25.423Z,3.62
2023-06-17T17:45:52.359Z,3.58
2023-06-17T17:48:19.341Z,4.00
2023-06-17T17:50:46.676Z,3.20
2023-06-17T17:53:13.803Z,4.12
2023-06-17T17:55:40.800Z,3.92
2023-06-17T17:58:07.706Z,3.28
2023-06-17T18:00:35.062Z,3.50
2023-06-17T18:03:02.042Z,3.53
2023-06-17T18:05:29.060Z,3.62
2023-06-17T18:07:55.953Z,4.43
2023-06-17T18:10:23.273Z,3.85
2023-06-17T18:12:50.373Z,3.87
2023-06-17T18:15:17.294Z,4.37
2023-06-17T18:17:44.163Z,3.75
2023-06-17T18:20:11.330Z,3.72
2023-06-17T18:22:38.840Z,4.22
2023-06-17T18:25:06.962Z,4.78
2023-06-17T18:27:36.717Z,4.12
2023-06-17T18:30:04.952Z,4.53
2023-06-17T18:32:32.338Z,5.03
2023-06-17T18:34:59.293Z,3.80
2023-06-17T18:37:26.328Z,4.60
2023-06-17T18:39:53.369Z,4.62
2023-06-17T18:42:20.380Z,4.78
2023-06-17T18:44:47.279Z,5.93
2023-06-17T18:47:14.175Z,4.60
2023-06-17T18:49:42.061Z,5.70
2023-06-17T18:52:08.960Z,5.25
2023-06-17T18:54:35.937Z,5.47
2023-06-17T18:57:02.871Z,5.60
2023-06-17T18:59:29.783Z,5.43
2023-06-17T19:01:56.694Z,5.03
2023-06-17T19:04:23.666Z,5.15
2023-06-17T19:06:50.705Z,5.00
2023-06-17T19:09:17.667Z,4.80
2023-06-17T19:11:44.589Z,4.82
2023-06-17T19:14:12.124Z,3.85
2023-06-17T19:16:39.165Z,4.32
2023-06-17T19:19:06.188Z,4.68
2023-06-17T19:21:33.281Z,4.75
2023-06-17T19:24:00.274Z,4.37
2023-06-17T19:26:27.252Z,5.10
2023-06-17T19:28:54.309Z,7.07
2023-06-17T19:31:22.569Z,6.20
2023-06-17T19:33:49.576Z,6.87
2023-06-17T19:36:16.799Z,6.05
2023-06-17T19:38:43.844Z,5.93
2023-06-17T19:41:10.932Z,4.93
2023-06-17T19:43:37.841Z,5.37
2023-06-17T19:46:05.082Z,5.72
2023-06-17T19:48:32.636Z,6.82
2023-06-17T19:51:02.708Z,7.28
2023-06-17T19:53:29.636Z,7.72
2023-06-17T19:55:56.815Z,10.27
2023-06-17T19:58:23.765Z,7.85
2023-06-17T20:00:50.732Z,8.55
2023-06-17T20:03:17.739Z,7.32
2023-06-17T20:05:46.430Z,6.00
2023-06-17T20:08:14.691Z,6.07
2023-06-17T20:10:42.941Z,5.78
2023-06-17T20:13:10.245Z,6.00
2023-06-17T20:15:38.239Z,6.03
2023-06-17T20:18:05.575Z,5.28
2023-06-17T20:20:33.436Z,5.00
2023-06-17T20:23:00.557Z,5.65
2023-06-17T20:25:28.436Z,6.70
2023-06-17T20:27:55.498Z,6.93
2023-06-17T20:30:23.084Z,6.70
2023-06-17T20:32:50.148Z,7.03
2023-06-17T20:35:17.190Z,7.00
2023-06-17T20:37:44.780Z,7.65
2023-06-17T20:40:12.136Z,6.32
2023-06-17T20:42:39.300Z,6.28
2023-06-17T20:45:08.626Z,5.95
2023-06-17T20:50:02.857Z,5.75
2023-06-17T20:52:29.735Z,5.95
2023-06-17T20:54:56.637Z,5.87
2023-06-17T20:57:23.563Z,5.70
2023-06-17T20:59:51.277Z,5.43
2023-06-17T21:02:19.894Z,5.43
2023-06-17T21:04:46.857Z,5.25
2023-06-17T21:07:13.841Z,5.95
2023-06-17T21:09:41.308Z,5.18
2023-06-17T21:12:08.495Z,5.45
2023-06-17T21:14:35.364Z,5.70
2023-06-17T21:17:02.317Z,4.68
2023-06-17T21:19:29.214Z,5.32
2023-06-17T21:21:56.129Z,5.30
2023-06-17T21:24:23.032Z,4.97
2023-06-17T21:26:49.959Z,4.65
2023-06-17T21:29:16.911Z,5.80
2023-06-17T21:31:43.871Z,5.43
2023-06-17T21:34:10.786Z,5.87
2023-06-17T21:36:37.782Z,6.40
2023-06-17T21:39:04.655Z,6.15
2023-06-17T21:41:31.560Z,5.80
2023-06-17T21:43:58.479Z,5.35
2023-06-17T21:46:30.221Z,5.30
2023-06-17T21:48:57.488Z,6.60
2023-06-17T21:51:24.502Z,6.40
2023-06-17T21:53:52.273Z,6.00
2023-06-17T21:56:19.181Z,5.93
2023-06-17T21:58:46.559Z,5.65
2023-06-17T22:01:13.564Z,5.62
2023-06-17T22:03:41.576Z,6.72
2023-06-17T22:06:08.929Z,5.03
2023-06-17T22:08:42.885Z,5.90
2023-06-17T22:11:12.274Z,5.30
2023-06-17T22:13:39.690Z,4.53
2023-06-17T22:16:06.579Z,5.07
2023-06-17T22:18:33.536Z,5.72
2023-06-17T22:21:00.448Z,4.32
2023-06-17T22:23:27.338Z,5.00
2023-06-17T22:25:56.881Z,4.87
2023-06-17T22:30:51.200Z,4.68
2023-06-17T22:33:18.213Z,4.82
2023-06-17T22:35:45.184Z,4.80
2023-06-17T22:38:14.051Z,4.50
2023-06-17T22:40:40.966Z,4.57
2023-06-17T22:43:08.066Z,4.85
2023-06-17T22:45:35.154Z,5.00
2023-06-17T22:48:04.084Z,4.97
2023-06-17T22:50:31.743Z,4.72
2023-06-17T22:52:58.583Z,4.70
2023-06-17T22:55:25.915Z,5.37
2023-06-17T22:57:52.792Z,5.22
2023-06-17T23:00:20.155Z,5.65
2023-06-17T23:02:47.370Z,5.25
2023-06-17T23:05:14.574Z,5.82
2023-06-17T23:07:41.441Z,5.43
2023-06-17T23:10:08.494Z,5.80
2023-06-17T23:12:35.452Z,4.43
2023-06-17T23:15:03.433Z,5.00
2023-06-17T23:17:30.307Z,4.78
2023-06-17T23:19:59.977Z,4.97
2023-06-17T23:24:55.134Z,5.97
2023-06-17T23:27:28.062Z,5.40
2023-06-17T23:29:56.197Z,4.20
2023-06-17T23:32:23.785Z,5.15
2023-06-17T23:34:53.951Z,4.90
2023-06-17T23:37:21.565Z,5.18
2023-06-17T23:39:48.816Z,5.22
2023-06-17T23:42:15.795Z,5.10
2023-06-17T23:44:43.572Z,5.20
2023-06-17T23:47:16.395Z,4.65
2023-06-17T23:49:43.339Z,4.82
2023-06-17T23:52:11.356Z,4.80
2023-06-17T23:54:38.995Z,4.55
2023-06-17T23:57:06.513Z,5.15
2023-06-17T23:59:34.020Z,4.60
